Time;durP1;ratioP1;P1;durP2;ratioP2;P2;SDS_P1;SDS_P2;PMS_P1;PMS_P2;Temp;Humidity;BMP_temperature;BMP_pressure;BME280_temperature;BME280_humidity;BME280_pressure;Samples;Min_cycle;Max_cycle;Signal;HPM_P1;HPM_P2
2023/06/13 05:06:16;;;;;;;;;32.75;28.25;;;;;23.00;58.18;100734.69;5070899;27;46986;-75
2023/06/13 05:08:42;;;;;;;;;30.75;25.25;;;;;23.09;57.96;100730.13;5059432;27;45613;-76
2023/06/13 05:11:07;;;;;;;;;30.50;29.25;;;;;23.24;58.04;100732.19;5066126;28;48344;-74
2023/06/13 05:13:32;;;;;;;;;31.50;28.50;;;;;23.37;57.81;100739.84;5069569;27;45449;-76
2023/06/13 05:15:58;;;;;;;;;26.50;26.50;;;;;23.41;56.90;100727.66;5067310;28;45528;-76
2023/06/13 05:18:24;;;;;;;;;31.75;26.75;;;;;23.61;57.31;100735.44;5062475;28;45670;-74
2023/06/13 05:20:50;;;;;;;;;30.00;25.75;;;;;23.76;56.92;100741.06;5067103;28;45494;-75
2023/06/13 05:23:15;;;;;;;;;32.33;28.67;;;;;23.89;56.70;100740.53;5067930;27;45609;-74
2023/06/13 05:25:41;;;;;;;;;32.33;28.33;;;;;23.97;56.27;100723.41;5064052;28;45978;-75
2023/06/13 05:28:06;;;;;;;;;28.00;25.33;;;;;24.08;56.30;100723.06;5068658;27;45825;-75
2023/06/13 05:30:32;;;;;;;;;28.50;27.00;;;;;24.12;55.83;100719.03;5058376;28;46362;-73
2023/06/13 05:32:58;;;;;;;;;27.33;26.33;;;;;24.25;55.89;100723.91;5060360;27;45493;-73
2023/06/13 05:35:23;;;;;;;;;28.00;28.00;;;;;24.33;55.32;100728.44;5062984;28;46011;-78
2023/06/13 05:37:50;;;;;;;;;25.25;25.00;;;;;24.42;55.38;100730.13;5057114;27;45561;-76
2023/06/13 05:40:15;;;;;;;;;28.00;24.67;;;;;24.47;55.58;100726.84;5082873;27;45355;-76
2023/06/13 05:42:40;;;;;;;;;28.25;25.75;;;;;24.53;55.22;100725.31;5064612;28;45539;-75
2023/06/13 05:45:07;;;;;;;;;27.67;26.33;;;;;24.56;54.99;100731.22;5061673;28;48189;-76
2023/06/13 05:47:33;;;;;;;;;25.75;22.00;;;;;24.64;54.91;100733.06;5064738;28;45528;-74
2023/06/13 05:49:59;;;;;;;;;25.33;23.33;;;;;24.66;54.18;100735.59;5067823;28;45409;-74
2023/06/13 05:52:25;;;;;;;;;27.50;26.25;;;;;24.73;54.25;100742.84;5067679;28;45446;-74
2023/06/13 05:54:50;;;;;;;;;24.00;23.33;;;;;24.73;54.03;100729.28;5061344;28;45405;-73
2023/06/13 05:57:15;;;;;;;;;26.00;23.00;;;;;24.79;54.14;100741.31;5051077;28;46307;-75
2023/06/13 05:59:41;;;;;;;;;27.00;26.00;;;;;24.83;53.90;100728.25;5061102;28;47229;-76
2023/06/13 06:02:09;;;;;;;;;28.67;27.67;;;;;24.83;53.17;100722.84;5057798;28;45431;-76
2023/06/13 06:04:34;;;;;;;;;26.00;26.00;;;;;24.89;53.21;100727.53;5067489;27;45920;-74
2023/06/13 06:07:00;;;;;;;;;27.67;24.00;;;;;24.90;53.03;100723.81;5063747;28;45554;-74
2023/06/13 06:09:25;;;;;;;;;26.00;25.67;;;;;24.92;52.86;100720.91;5067829;28;45367;-74
2023/06/13 06:11:52;;;;;;;;;23.33;23.33;;;;;24.94;53.28;100727.03;5057023;28;45904;-75
2023/06/13 06:14:17;;;;;;;;;27.00;27.00;;;;;24.95;53.04;100721.41;5060955;28;46296;-76
2023/06/13 06:16:43;;;;;;;;;20.00;18.00;;;;;24.96;53.04;100720.38;5047844;28;45483;-77
2023/06/13 06:19:09;;;;;;;;;26.67;24.33;;;;;24.96;52.77;100709.53;5038576;28;50897;-76
2023/06/13 06:21:34;;;;;;;;;26.67;24.33;;;;;25.03;52.32;100714.22;5042045;28;45687;-74
2023/06/13 06:24:00;;;;;;;;;23.67;20.67;;;;;25.05;52.77;100713.03;5039900;28;46177;-74
2023/06/13 06:26:26;;;;;;;;;26.00;22.67;;;;;25.07;52.84;100710.13;5041477;28;45439;-74
2023/06/13 06:28:52;;;;;;;;;22.00;19.67;;;;;25.11;53.22;100708.75;5055079;28;45438;-75
2023/06/13 06:31:17;;;;;;;;;18.33;17.33;;;;;25.16;53.61;100716.34;5054385;28;45837;-75
2023/06/13 06:33:43;;;;;;;;;22.33;21.33;;;;;25.20;53.06;100715.81;5053952;28;46311;-75
2023/06/13 06:36:08;;;;;;;;;19.67;18.33;;;;;25.23;52.86;100714.63;5044424;28;45426;-75
2023/06/13 06:38:33;;;;;;;;;21.67;21.67;;;;;25.25;53.14;100715.25;5046585;28;46071;-75
2023/06/13 06:40:59;;;;;;;;;23.33;23.33;;;;;25.24;52.87;100706.28;5052439;28;45591;-77
2023/06/13 06:43:24;;;;;;;;;25.00;21.33;;;;;25.30;52.25;100706.59;5053967;28;46970;-77
2023/06/13 06:45:49;;;;;;;;;28.00;26.33;;;;;25.30;51.78;100696.56;5050300;28;52363;-76
2023/06/13 06:48:15;;;;;;;;;28.67;25.33;;;;;25.30;51.51;100701.16;5052283;28;52813;-79
2023/06/13 06:50:40;;;;;;;;;23.33;22.33;;;;;25.35;51.15;100706.88;5053646;28;45436;-77
2023/06/13 06:53:05;;;;;;;;;23.00;23.00;;;;;25.33;51.23;100703.50;5051058;28;60555;-78
2023/06/13 06:55:31;;;;;;;;;21.67;21.67;;;;;25.32;50.85;100699.09;5042675;28;45496;-77
2023/06/13 06:57:56;;;;;;;;;22.33;21.67;;;;;25.27;50.29;100692.31;5042474;28;45490;-77
2023/06/13 07:00:23;;;;;;;;;20.67;18.67;;;;;25.37;50.16;100704.81;5042166;28;46431;-77
2023/06/13 07:02:49;;;;;;;;;19.67;19.67;;;;;25.38;49.83;100703.81;5047671;28;46174;-77
2023/06/13 07:05:17;;;;;;;;;19.33;18.33;;;;;25.35;49.51;100705.03;5046793;28;45355;-77
2023/06/13 07:07:44;;;;;;;;;18.33;18.33;;;;;25.39;49.04;100711.75;5041963;28;45505;-77
2023/06/13 07:10:10;;;;;;;;;19.67;19.67;;;;;25.41;48.84;100708.03;5049366;28;45519;-75
2023/06/13 07:12:36;;;;;;;;;22.33;19.67;;;;;25.40;48.59;100707.19;5040450;28;45613;-76
2023/06/13 07:15:02;;;;;;;;;21.67;19.33;;;;;25.41;48.85;100699.88;5047516;28;45507;-77
2023/06/13 07:17:28;;;;;;;;;19.00;19.00;;;;;25.44;48.15;100704.94;5038674;28;45351;-76
2023/06/13 07:19:54;;;;;;;;;21.00;20.00;;;;;25.46;48.17;100708.34;5044072;28;45559;-75
2023/06/13 07:22:19;;;;;;;;;17.00;16.33;;;;;25.48;48.29;100711.69;5044432;28;45883;-74
2023/06/13 07:24:44;;;;;;;;;21.33;21.00;;;;;25.50;47.78;100712.38;5051716;28;45544;-73
2023/06/13 07:27:11;;;;;;;;;19.67;18.33;;;;;25.48;48.11;100714.41;5052614;28;50666;-74
2023/06/13 07:29:36;;;;;;;;;23.00;21.67;;;;;25.51;47.72;100709.47;5047485;28;45479;-74
2023/06/13 07:32:01;;;;;;;;;18.33;18.33;;;;;25.54;47.74;100705.53;5050330;28;45513;-75
2023/06/13 07:34:27;;;;;;;;;20.33;20.33;;;;;25.53;47.36;100703.84;5044111;28;45512;-77
2023/06/13 07:36:53;;;;;;;;;18.00;18.00;;;;;25.56;47.95;100702.66;5036268;28;48814;-77
2023/06/13 07:39:20;;;;;;;;;18.67;17.67;;;;;25.58;47.18;100697.91;5037779;28;45382;-75
2023/06/13 07:41:46;;;;;;;;;17.67;15.33;;;;;25.62;46.26;100712.78;5042342;28;47226;-73
2023/06/13 07:44:12;;;;;;;;;18.00;14.67;;;;;25.62;46.72;100705.50;5054042;28;45554;-75
2023/06/13 07:46:38;;;;;;;;;18.33;18.33;;;;;25.64;46.59;100697.16;5048542;28;45368;-76
2023/06/13 07:49:03;;;;;;;;;17.33;17.00;;;;;25.69;45.68;100704.75;5051583;28;45422;-76
2023/06/13 07:51:29;;;;;;;;;17.67;15.67;;;;;25.71;45.76;100702.72;5051257;28;46242;-75
2023/06/13 07:53:54;;;;;;;;;17.67;17.67;;;;;25.73;45.52;100708.78;5051785;28;45486;-78
2023/06/13 07:56:20;;;;;;;;;21.00;19.00;;;;;25.77;45.09;100712.84;5048952;28;45612;-78
2023/06/13 07:58:46;;;;;;;;;17.67;16.33;;;;;25.79;45.77;100708.06;5042730;28;45585;-78
2023/06/13 08:01:11;;;;;;;;;21.67;19.67;;;;;25.81;45.30;100714.16;5048654;28;45658;-79
2023/06/13 08:03:36;;;;;;;;;20.67;19.67;;;;;25.80;45.27;100709.75;5051697;28;45646;-74
2023/06/13 08:06:02;;;;;;;;;20.67;19.00;;;;;25.83;44.86;100703.94;5038599;28;45483;-77
2023/06/13 08:08:27;;;;;;;;;17.33;17.33;;;;;25.82;44.99;100696.00;5044278;28;45482;-73
2023/06/13 08:10:52;;;;;;;;;19.67;19.67;;;;;25.90;45.15;100704.03;5051830;28;45445;-74
2023/06/13 08:13:18;;;;;;;;;18.33;18.33;;;;;25.86;44.86;100697.28;5053055;28;45874;-75
2023/06/13 08:15:44;;;;;;;;;16.00;16.00;;;;;25.96;45.05;100695.16;5051397;28;45529;-75
2023/06/13 08:18:09;;;;;;;;;19.00;18.00;;;;;25.95;45.59;100695.34;5052972;28;45503;-74
2023/06/13 08:20:36;;;;;;;;;20.00;19.00;;;;;25.99;45.35;100700.22;5051219;28;45470;-74
2023/06/13 08:23:01;;;;;;;;;17.00;16.33;;;;;26.01;45.41;100692.72;5050404;28;45765;-76
2023/06/13 08:25:26;;;;;;;;;21.00;21.00;;;;;26.03;45.21;100703.38;5046219;28;45769;-74
2023/06/13 08:27:52;;;;;;;;;17.33;17.33;;;;;26.05;45.64;100702.22;5052704;28;45482;-75
2023/06/13 08:30:18;;;;;;;;;20.67;20.67;;;;;26.02;45.16;100699.84;5050607;28;45967;-74
2023/06/13 08:32:46;;;;;;;;;19.67;19.67;;;;;26.08;46.18;100703.72;5047900;28;45372;-75
2023/06/13 08:35:14;;;;;;;;;23.67;20.67;;;;;26.11;46.07;100710.66;5046090;28;45363;-76
2023/06/13 08:37:39;;;;;;;;;24.67;22.00;;;;;26.10;46.23;100698.06;5044635;28;45750;-78
2023/06/13 08:40:09;;;;;;;;;16.33;16.33;;;;;26.10;46.04;100696.19;5051199;28;45455;-76
2023/06/13 08:42:36;;;;;;;;;17.67;16.33;;;;;26.11;46.20;100697.03;5051430;28;45461;-77
2023/06/13 08:45:01;;;;;;;;;17.00;17.00;;;;;26.11;46.57;100691.59;5040933;28;45562;-77
2023/06/13 08:47:28;;;;;;;;;22.33;19.00;;;;;26.14;46.72;100697.50;5050922;28;46093;-77
2023/06/13 08:49:53;;;;;;;;;16.33;16.33;;;;;26.17;46.19;100688.94;5038280;28;46143;-76
2023/06/13 08:52:19;;;;;;;;;18.33;17.00;;;;;26.20;46.57;100692.34;5043130;28;45496;-75
2023/06/13 08:54:45;;;;;;;;;18.00;18.00;;;;;26.21;46.43;100681.28;5041463;28;45514;-76
2023/06/13 08:57:15;;;;;;;;;17.00;16.00;;;;;26.22;46.44;100684.81;5044022;28;45613;-76
2023/06/13 08:59:44;;;;;;;;;16.33;16.33;;;;;26.22;46.38;100693.84;5049935;28;46068;-76
2023/06/13 09:02:14;;;;;;;;;21.67;17.67;;;;;26.22;47.09;100691.13;5042621;28;46337;-76
2023/06/13 09:04:40;;;;;;;;;17.33;17.33;;;;;26.25;46.83;100695.38;5051061;28;45399;-74
2023/06/13 09:07:06;;;;;;;;;18.33;17.00;;;;;26.24;47.39;100691.78;5049976;28;45443;-77
2023/06/13 09:09:32;;;;;;;;;14.67;14.67;;;;;26.25;47.05;100685.34;5047172;28;46137;-79
2023/06/13 09:11:58;;;;;;;;;20.00;16.00;;;;;26.26;46.84;100683.44;5052118;28;45385;-79
2023/06/13 09:14:23;;;;;;;;;15.00;14.00;;;;;26.30;47.57;100691.06;5047062;28;45586;-77
2023/06/13 09:16:52;;;;;;;;;16.33;14.67;;;;;26.30;47.59;100688.34;5040191;28;45382;-76
2023/06/13 09:19:17;;;;;;;;;17.00;17.00;;;;;26.32;47.24;100690.84;5036918;28;46105;-77
2023/06/13 09:21:43;;;;;;;;;17.33;17.33;;;;;26.34;47.71;100688.81;5045336;28;45628;-76
2023/06/13 09:24:09;;;;;;;;;15.00;15.00;;;;;26.35;47.83;100686.94;5041365;28;45614;-78
2023/06/13 09:26:35;;;;;;;;;17.00;15.33;;;;;26.36;47.14;100685.91;5034458;28;45466;-78
2023/06/13 09:29:00;;;;;;;;;15.33;15.33;;;;;26.34;47.55;100683.38;5050448;28;46068;-77
2023/06/13 09:31:28;;;;;;;;;16.33;16.00;;;;;26.36;47.32;100685.91;5051713;28;45526;-77
2023/06/13 09:33:54;;;;;;;;;19.67;16.33;;;;;26.34;47.52;100690.66;5045314;28;46003;-77
2023/06/13 09:36:24;;;;;;;;;15.33;14.33;;;;;26.36;48.20;100694.88;5038379;28;45761;-77
2023/06/13 09:38:50;;;;;;;;;20.67;16.00;;;;;26.38;48.09;100691.97;5033260;28;46099;-77
2023/06/13 09:41:19;;;;;;;;;16.67;16.67;;;;;26.38;48.16;100694.72;5041344;28;45265;-73
2023/06/13 09:43:44;;;;;;;;;13.00;12.67;;;;;26.38;48.02;100687.41;5037298;28;45801;-73
2023/06/13 09:46:12;;;;;;;;;17.00;15.67;;;;;26.40;48.33;100690.75;5032842;28;45522;-73
2023/06/13 09:48:38;;;;;;;;;17.67;16.33;;;;;26.37;48.17;100682.13;5032734;28;45462;-73
2023/06/13 09:51:09;;;;;;;;;16.67;14.67;;;;;26.40;47.91;100689.94;5042233;28;45554;-73
2023/06/13 09:53:35;;;;;;;;;11.33;11.00;;;;;26.38;48.80;100683.81;5038222;28;45495;-75
2023/06/13 09:56:00;;;;;;;;;11.00;11.00;;;;;26.37;48.26;100680.28;5035200;28;45590;-74
2023/06/13 09:58:26;;;;;;;;;14.00;12.67;;;;;26.35;48.32;100679.59;5050289;28;46115;-73
2023/06/13 10:00:56;;;;;;;;;12.00;12.00;;;;;26.36;48.62;100688.63;5045697;28;45439;-74
2023/06/13 10:03:23;;;;;;;;;12.00;11.33;;;;;26.37;48.55;100683.00;5038625;28;45423;-74
2023/06/13 10:05:49;;;;;;;;;10.00;10.00;;;;;26.36;48.87;100681.28;5040484;28;45512;-74
2023/06/13 10:08:14;;;;;;;;;12.00;12.00;;;;;26.36;48.98;100685.91;5041159;28;45850;-74
2023/06/13 10:10:41;;;;;;;;;11.67;10.67;;;;;26.34;49.15;100683.38;5043205;28;45410;-73
2023/06/13 10:13:14;;;;;;;;;12.33;12.33;;;;;26.36;49.60;100680.47;5041034;28;45573;-74
2023/06/13 10:15:51;;;;;;;;;15.00;12.00;;;;;26.36;48.67;100680.47;5046483;28;45651;-73
2023/06/13 10:18:21;;;;;;;;;11.33;11.33;;;;;26.36;49.35;100694.88;5037945;28;46142;-73
2023/06/13 10:20:48;;;;;;;;;10.67;9.67;;;;;26.35;48.89;100684.22;5047951;28;45376;-73
2023/06/13 10:23:18;;;;;;;;;15.00;12.00;;;;;26.36;48.67;100686.72;5042028;28;45419;-73
2023/06/13 10:25:47;;;;;;;;;11.33;11.33;;;;;26.39;48.60;100693.66;5040770;28;45432;-73
2023/06/13 10:28:27;;;;;;;;;12.00;10.33;;;;;26.39;48.39;100693.66;5037405;28;45546;-73
2023/06/13 10:31:08;;;;;;;;;9.00;9.00;;;;;26.39;48.90;100691.81;5038386;28;46207;-73
2023/06/13 10:33:58;;;;;;;;;11.67;10.00;;;;;26.40;48.31;100700.81;5042238;28;45475;-73
2023/06/13 10:36:43;;;;;;;;;13.33;13.33;;;;;26.39;48.22;100689.09;5042202;28;45308;-73
2023/06/13 10:39:43;;;;;;;;;10.67;10.67;;;;;26.39;48.88;100689.09;5041246;28;47327;-74
2023/06/13 10:42:19;;;;;;;;;10.67;10.67;;;;;26.40;48.59;100689.94;5040304;28;45539;-74
2023/06/13 10:44:59;;;;;;;;;11.67;11.67;;;;;26.38;48.47;100691.97;5049057;28;45504;-74
2023/06/13 10:47:28;;;;;;;;;10.00;10.00;;;;;26.39;48.87;100690.94;5047674;28;45454;-74
2023/06/13 10:49:53;;;;;;;;;10.33;10.33;;;;;26.39;48.61;100671.91;5040533;28;45452;-74
2023/06/13 10:52:21;;;;;;;;;9.67;9.67;;;;;26.36;49.17;100678.56;5037649;28;45630;-74
2023/06/13 10:54:54;;;;;;;;;11.33;11.33;;;;;26.39;48.72;100683.63;5043485;28;45418;-76
2023/06/13 10:57:20;;;;;;;;;12.00;12.00;;;;;26.41;48.75;100681.56;5043044;28;45442;-78
2023/06/13 10:59:49;;;;;;;;;14.33;11.67;;;;;26.45;48.92;100682.03;5047912;28;45593;-77
2023/06/13 11:02:15;;;;;;;;;12.00;12.00;;;;;26.48;49.13;100683.53;5037474;28;45466;-78
2023/06/13 11:04:49;;;;;;;;;11.00;11.00;;;;;26.43;48.38;100667.78;5044095;28;45472;-78
2023/06/13 11:07:25;;;;;;;;;11.67;11.67;;;;;26.54;48.50;100677.34;5041879;28;45437;-78
2023/06/13 11:10:00;;;;;;;;;13.00;12.67;;;;;26.56;48.75;100676.09;5042768;28;45474;-76
2023/06/13 11:12:26;;;;;;;;;11.00;11.00;;;;;26.54;48.54;100675.47;5047949;28;45471;-76
2023/06/13 11:14:57;;;;;;;;;10.00;10.00;;;;;26.60;48.74;100673.84;5043220;28;45330;-76
2023/06/13 11:17:23;;;;;;;;;10.67;10.67;;;;;26.58;48.62;100665.03;5050946;28;45450;-77
2023/06/13 11:19:52;;;;;;;;;10.00;10.00;;;;;26.64;48.55;100671.59;5049270;28;45933;-77
2023/06/13 11:22:21;;;;;;;;;11.33;11.33;;;;;26.64;48.36;100675.16;5063197;28;45624;-77
2023/06/13 11:24:47;;;;;;;;;11.00;11.00;;;;;26.66;48.61;100683.13;5049443;28;45764;-76
2023/06/13 11:27:15;;;;;;;;;11.67;10.67;;;;;26.65;48.00;100679.53;5037417;28;45521;-76
2023/06/13 11:29:42;;;;;;;;;13.00;12.00;;;;;26.64;48.37;100688.75;5052272;28;46007;-77
2023/06/13 11:32:08;;;;;;;;;11.33;11.33;;;;;26.61;47.85;100669.25;5047675;28;45629;-76
2023/06/13 11:34:41;;;;;;;;;13.67;13.67;;;;;26.65;48.38;100686.88;5045297;28;45512;-74
2023/06/13 11:37:30;;;;;;;;;11.67;11.67;;;;;26.62;48.22;100682.66;5053538;28;45920;-74
2023/06/13 11:39:56;;;;;;;;;14.00;14.00;;;;;26.58;48.53;100684.91;5044749;28;46168;-74
2023/06/13 11:42:23;;;;;;;;;13.00;12.33;;;;;26.57;48.43;100679.69;5052284;28;45438;-75
2023/06/13 11:44:49;;;;;;;;;11.33;11.33;;;;;26.54;48.00;100678.19;5052084;28;45471;-78
2023/06/13 11:47:14;;;;;;;;;13.00;12.33;;;;;26.56;48.91;100686.13;5046314;28;45529;-77
2023/06/13 11:49:42;;;;;;;;;12.33;12.33;;;;;26.51;48.85;100674.97;5064655;28;46315;-76
2023/06/13 11:52:16;;;;;;;;;12.67;12.67;;;;;26.53;48.79;100675.66;5050619;28;45578;-75
2023/06/13 11:54:47;;;;;;;;;10.33;9.33;;;;;26.50;49.02;100679.59;5044857;28;45606;-74
2023/06/13 11:57:15;;;;;;;;;12.33;12.33;;;;;26.47;48.57;100685.41;5040639;28;46068;-74
2023/06/13 11:59:40;;;;;;;;;12.67;12.67;;;;;26.46;48.35;100685.59;5047419;28;47190;-74
2023/06/13 12:02:07;;;;;;;;;10.67;10.00;;;;;26.43;49.02;100689.53;5044562;28;45471;-74
2023/06/13 12:04:33;;;;;;;;;12.67;12.00;;;;;26.41;49.05;100684.28;5038008;28;45305;-74
2023/06/13 12:07:04;;;;;;;;;13.33;10.67;;;;;26.41;48.58;100678.00;5052993;28;45415;-74
2023/06/13 12:09:30;;;;;;;;;13.00;10.33;;;;;26.39;49.15;100672.75;5051936;28;45534;-76
2023/06/13 12:11:55;;;;;;;;;11.67;10.00;;;;;26.40;48.64;100674.44;5040641;28;45561;-74
2023/06/13 12:14:23;;;;;;;;;13.33;13.33;;;;;26.36;49.12;100678.56;5049838;28;45374;-75
2023/06/13 12:16:51;;;;;;;;;12.00;11.00;;;;;26.39;48.59;100677.34;5032617;28;45492;-75
2023/06/13 12:19:21;;;;;;;;;10.00;9.33;;;;;26.39;48.73;100675.47;5035916;28;45755;-74
2023/06/13 12:21:50;;;;;;;;;10.00;10.00;;;;;26.40;48.58;100674.44;5034908;28;45479;-74
2023/06/13 12:24:16;;;;;;;;;10.33;10.33;;;;;26.39;48.95;100675.47;5046915;28;45525;-76
2023/06/13 12:26:43;;;;;;;;;9.67;9.67;;;;;26.38;48.96;100673.78;5043789;28;46975;-76
2023/06/13 12:29:11;;;;;;;;;9.00;9.00;;;;;26.34;48.53;100664.31;5040595;28;46150;-76
2023/06/13 12:31:42;;;;;;;;;6.00;6.00;;;;;26.35;49.38;100679.59;5046838;28;45526;-74
2023/06/13 12:34:16;;;;;;;;;10.33;8.00;;;;;26.35;48.70;100676.88;5051316;28;45513;-75
2023/06/13 12:36:46;;;;;;;;;15.00;12.00;;;;;26.36;48.99;100678.56;5053144;28;45707;-76
2023/06/13 12:39:14;;;;;;;;;11.00;11.00;;;;;26.37;49.27;100679.41;5050017;28;46889;-75
2023/06/13 12:41:44;;;;;;;;;12.33;11.67;;;;;26.37;49.52;100674.84;5050291;28;45553;-75
2023/06/13 12:44:10;;;;;;;;;9.67;9.67;;;;;26.38;48.83;100665.63;5035979;28;45626;-76
2023/06/13 12:46:40;;;;;;;;;14.67;10.67;;;;;26.38;48.74;100665.63;5041599;28;45683;-75
2023/06/13 12:49:10;;;;;;;;;10.33;10.33;;;;;26.39;49.43;100656.44;5055501;28;47148;-76
2023/06/13 12:51:49;;;;;;;;;11.33;10.33;;;;;26.41;49.43;100662.50;5051492;28;45437;-77
2023/06/13 12:54:17;;;;;;;;;10.00;9.33;;;;;26.41;49.44;100659.78;5048551;28;45505;-78
2023/06/13 12:56:54;;;;;;;;;10.00;10.00;;;;;26.41;48.72;100676.13;5039724;28;45606;-78
2023/06/13 12:59:33;;;;;;;;;15.00;10.33;;;;;26.38;48.94;100670.22;5045123;28;46576;-77
2023/06/13 13:02:00;;;;;;;;;8.33;8.33;;;;;26.42;49.13;100668.81;5040304;28;45490;-77
2023/06/13 13:04:30;;;;;;;;;8.67;8.67;;;;;26.35;48.83;100648.84;5040563;28;45436;-78
2023/06/13 13:06:56;;;;;;;;;8.33;8.33;;;;;26.42;49.37;100666.94;5038757;28;45665;-78
2023/06/13 13:09:22;;;;;;;;;10.00;10.00;;;;;26.42;48.83;100675.09;5049411;28;46180;-78
2023/06/13 13:11:48;;;;;;;;;9.33;9.33;;;;;26.43;48.77;100659.59;5042511;28;45418;-78
2023/06/13 13:14:13;;;;;;;;;10.00;10.00;;;;;26.44;48.77;100670.31;5044829;28;46470;-77
2023/06/13 13:16:39;;;;;;;;;9.33;9.33;;;;;26.45;48.79;100660.28;5050491;28;45481;-78
2023/06/13 13:19:04;;;;;;;;;8.67;8.67;;;;;26.46;49.47;100658.38;5040494;28;45447;-77
2023/06/13 13:21:29;;;;;;;;;9.00;9.00;;;;;26.48;48.95;100661.78;5045195;28;45643;-79
2023/06/13 13:23:55;;;;;;;;;7.33;7.33;;;;;26.44;49.57;100650.41;5047256;28;45522;-77
2023/06/13 13:26:20;;;;;;;;;11.00;11.00;;;;;26.49;49.13;100653.44;5053046;28;45516;-78
2023/06/13 13:28:46;;;;;;;;;10.00;10.00;;;;;26.46;49.24;100652.94;5053754;28;45754;-76
2023/06/13 13:31:11;;;;;;;;;10.67;10.33;;;;;26.41;48.88;100642.63;5054122;28;45415;-77
2023/06/13 13:33:37;;;;;;;;;12.67;11.00;;;;;26.50;49.35;100655.09;5053106;28;45470;-77
2023/06/13 13:36:02;;;;;;;;;9.00;7.67;;;;;26.50;49.43;100651.53;5051641;28;50115;-75
2023/06/13 13:38:27;;;;;;;;;11.67;10.33;;;;;26.47;49.09;100627.41;5043832;28;45348;-77
2023/06/13 13:40:53;;;;;;;;;9.00;9.00;;;;;26.50;49.64;100641.50;5047832;28;46420;-76
2023/06/13 13:43:19;;;;;;;;;10.67;9.00;;;;;26.51;48.89;100647.75;5050233;28;45467;-77
2023/06/13 13:45:44;;;;;;;;;9.33;9.33;;;;;26.51;49.59;100645.91;5054806;28;45565;-78
2023/06/13 13:48:12;;;;;;;;;11.67;9.00;;;;;26.52;49.58;100644.84;5044148;28;45446;-78
2023/06/13 13:50:37;;;;;;;;;9.00;9.00;;;;;26.52;48.96;100638.59;5051064;28;45465;-75
2023/06/13 13:53:02;;;;;;;;;10.00;10.00;;;;;26.49;49.57;100614.47;5049103;28;45425;-76
2023/06/13 13:55:28;;;;;;;;;11.33;11.33;;;;;26.48;48.97;100624.50;5047597;28;45630;-77
2023/06/13 13:57:53;;;;;;;;;11.67;8.33;;;;;26.52;48.98;100620.38;5044337;28;46015;-76
2023/06/13 14:00:19;;;;;;;;;13.00;11.33;;;;;26.51;49.43;100615.97;5042000;28;45877;-74
2023/06/13 14:02:44;;;;;;;;;11.00;10.00;;;;;26.53;49.44;100622.03;5053491;28;45685;-74
2023/06/13 14:05:10;;;;;;;;;10.00;9.00;;;;;26.51;49.31;100604.22;5045079;28;54063;-74
2023/06/13 14:07:35;;;;;;;;;9.33;9.33;;;;;26.51;49.33;100606.94;5047540;28;46937;-74
2023/06/13 14:10:00;;;;;;;;;10.00;9.00;;;;;26.53;49.26;100604.88;5038576;28;48046;-75
2023/06/13 14:12:26;;;;;;;;;8.00;8.00;;;;;26.53;48.91;100611.16;5051491;28;45515;-77
2023/06/13 14:14:52;;;;;;;;;8.33;8.33;;;;;26.56;48.96;100608.06;5053997;28;45566;-73
2023/06/13 14:17:17;;;;;;;;;9.00;9.00;;;;;26.55;49.47;100602.81;5049591;28;45457;-74
2023/06/13 14:50:13;;;;;;;;;9.00;9.00;;;;;25.32;50.92;100587.72;5105414;27;45643;-75
2023/06/13 14:52:39;;;;;;;;;12.67;11.67;;;;;25.38;51.12;100587.81;5110481;27;45680;-75
2023/06/13 14:55:04;;;;;;;;;13.67;12.00;;;;;25.47;51.08;100588.56;5100349;27;45611;-76
2023/06/13 14:57:30;;;;;;;;;9.67;9.67;;;;;25.59;50.90;100580.84;5084335;27;45432;-74
2023/06/13 14:59:55;;;;;;;;;11.67;10.00;;;;;25.71;51.22;100583.94;5091927;27;50355;-75
2023/06/13 15:02:21;;;;;;;;;11.00;11.00;;;;;25.79;51.06;100575.69;5089671;27;45401;-79
2023/06/13 15:04:46;;;;;;;;;11.00;10.67;;;;;25.91;50.98;100578.78;5096368;27;45658;-75
2023/06/13 15:07:11;;;;;;;;;11.00;9.00;;;;;25.98;50.64;100570.72;5092280;27;48502;-75
2023/06/13 15:09:37;;;;;;;;;10.33;10.33;;;;;26.12;50.26;100588.03;5092871;27;46004;-75
2023/06/13 15:12:04;;;;;;;;;10.33;10.00;;;;;26.20;50.13;100587.13;5088885;27;45652;-75
2023/06/13 15:14:29;;;;;;;;;8.67;7.67;;;;;26.27;50.25;100579.91;5089796;27;45490;-75
2023/06/13 15:16:54;;;;;;;;;13.33;13.33;;;;;26.31;49.33;100574.91;5102146;27;45535;-75
2023/06/13 15:19:20;;;;;;;;;12.00;10.00;;;;;26.39;50.01;100572.06;5088165;27;54088;-75
2023/06/13 15:21:46;;;;;;;;;9.00;8.33;;;;;26.44;49.49;100580.50;5089172;27;45612;-75
2023/06/13 15:24:11;;;;;;;;;11.33;10.67;;;;;26.49;49.65;100587.25;5089230;27;45829;-75
2023/06/13 15:26:36;;;;;;;;;11.67;10.00;;;;;26.51;49.00;100579.72;5106252;27;45609;-76
2023/06/13 15:29:02;;;;;;;;;10.33;9.00;;;;;26.57;49.47;100585.25;5085702;27;50712;-77
2023/06/13 15:31:28;;;;;;;;;12.33;11.67;;;;;26.61;49.33;100590.31;5105144;27;45494;-77
2023/06/13 15:33:53;;;;;;;;;15.00;12.67;;;;;26.62;48.70;100578.38;5096713;27;45786;-76
2023/06/13 15:36:20;;;;;;;;;11.33;9.33;;;;;26.66;48.72;100587.84;5096807;27;45612;-77
2023/06/13 15:38:45;;;;;;;;;9.33;9.33;;;;;26.68;49.22;100583.03;5093300;27;46146;-77
2023/06/13 15:41:10;;;;;;;;;10.67;10.67;;;;;26.69;49.40;100579.31;5095115;27;45718;-77
2023/06/13 15:43:36;;;;;;;;;9.33;9.33;;;;;26.71;48.51;100582.66;5096784;27;45624;-76
2023/06/13 15:46:01;;;;;;;;;10.33;10.33;;;;;26.72;48.97;100587.06;5093615;27;62191;-75
2023/06/13 15:48:27;;;;;;;;;13.33;10.33;;;;;26.72;48.88;100578.06;5103517;27;45493;-77
2023/06/13 15:50:52;;;;;;;;;8.67;8.00;;;;;26.75;48.55;100583.13;5106315;27;45342;-75
2023/06/13 15:53:19;;;;;;;;;9.00;9.00;;;;;26.74;49.15;100584.16;5102171;27;45500;-77
2023/06/13 15:55:45;;;;;;;;;9.67;9.67;;;;;26.74;48.40;100581.44;5092877;27;45531;-77
2023/06/13 15:58:11;;;;;;;;;8.33;8.00;;;;;26.79;48.98;100584.41;5094439;27;46172;-78
2023/06/13 16:00:40;;;;;;;;;11.00;9.33;;;;;26.78;48.43;100575.44;5093325;27;45456;-78
2023/06/13 16:03:06;;;;;;;;;9.33;9.33;;;;;26.79;48.97;100578.97;5068809;27;45792;-77
2023/06/13 16:05:32;;;;;;;;;7.67;7.67;;;;;26.81;48.60;100583.19;5095337;27;45479;-77
2023/06/13 16:07:58;;;;;;;;;11.00;11.00;;;;;26.82;48.88;100581.31;5081875;27;45550;-78
2023/06/13 16:10:23;;;;;;;;;11.33;11.33;;;;;26.82;48.27;100587.59;5081153;27;45488;-77
2023/06/13 16:12:49;;;;;;;;;10.33;10.33;;;;;26.83;48.34;100583.00;5091960;27;45891;-75
2023/06/13 16:15:14;;;;;;;;;10.00;10.00;;;;;26.83;48.25;100589.28;5094074;27;45387;-77
2023/06/13 16:17:40;;;;;;;;;11.00;11.00;;;;;26.82;48.68;100582.13;5087898;27;47769;-76
2023/06/13 16:20:06;;;;;;;;;10.67;10.67;;;;;26.86;48.14;100584.47;5095427;27;45487;-76
2023/06/13 16:22:31;;;;;;;;;11.00;9.33;;;;;26.83;48.25;100583.84;5082569;27;45446;-75
2023/06/13 16:24:56;;;;;;;;;10.67;10.00;;;;;26.87;48.06;100591.59;5077526;27;45575;-76
2023/06/13 16:27:22;;;;;;;;;9.33;8.33;;;;;26.83;48.80;100585.72;5083600;27;55891;-76
2023/06/13 16:29:47;;;;;;;;;8.67;8.67;;;;;26.87;48.80;100589.75;5062432;27;45418;-77
2023/06/13 16:32:12;;;;;;;;;11.33;11.33;;;;;26.89;48.05;100586.81;5076574;27;45421;-77
2023/06/13 16:34:38;;;;;;;;;9.67;9.67;;;;;26.86;48.55;100592.66;5075819;27;54153;-77
2023/06/13 16:37:03;;;;;;;;;11.00;9.33;;;;;26.85;48.44;100586.34;5077448;27;46416;-77
2023/06/13 16:39:29;;;;;;;;;8.67;8.33;;;;;26.84;48.28;100595.56;5076421;27;45463;-77
2023/06/13 16:41:54;;;;;;;;;11.33;11.33;;;;;26.83;48.67;100597.47;5073549;27;55420;-78
2023/06/13 16:44:19;;;;;;;;;10.00;10.00;;;;;26.77;48.73;100579.16;5075690;27;45371;-77
2023/06/13 16:46:45;;;;;;;;;9.00;9.00;;;;;26.84;48.64;100599.13;5076102;27;46932;-77